sensor_id;sensor_type;location;lat;lon;timestamp;P1;durP1;ratioP1;P2;durP2;ratioP2
9496;SDS011;4786;51.270;4.456;2023-02-28T00:00:49;8.37;;;6.83;;
9496;SDS011;4786;51.270;4.456;2023-02-28T00:03:15;10.00;;;7.70;;
9496;SDS011;4786;51.270;4.456;2023-02-28T00:05:41;7.93;;;7.07;;
9496;SDS011;4786;51.270;4.456;2023-02-28T00:08:07;10.43;;;6.80;;
9496;SDS011;4786;51.270;4.456;2023-02-28T00:10:34;10.10;;;7.07;;
9496;SDS011;4786;51.270;4.456;2023-02-28T00:13:02;8.17;;;7.17;;
9496;SDS011;4786;51.270;4.456;2023-02-28T00:15:29;9.83;;;7.37;;
9496;SDS011;4786;51.270;4.456;2023-02-28T00:17:56;9.57;;;7.60;;
9496;SDS011;4786;51.270;4.456;2023-02-28T00:20:22;9.13;;;7.40;;
9496;SDS011;4786;51.270;4.456;2023-02-28T00:22:50;11.70;;;7.53;;
9496;SDS011;4786;51.270;4.456;2023-02-28T00:25:19;8.53;;;7.33;;
9496;SDS011;4786;51.270;4.456;2023-02-28T00:27:47;9.60;;;7.40;;
9496;SDS011;4786;51.270;4.456;2023-02-28T00:30:15;10.27;;;7.80;;
9496;SDS011;4786;51.270;4.456;2023-02-28T00:32:46;11.70;;;7.57;;
9496;SDS011;4786;51.270;4.456;2023-02-28T00:35:12;10.30;;;7.13;;
9496;SDS011;4786;51.270;4.456;2023-02-28T00:37:39;8.37;;;7.00;;
9496;SDS011;4786;51.270;4.456;2023-02-28T00:40:05;9.70;;;7.80;;
9496;SDS011;4786;51.270;4.456;2023-02-28T00:42:33;7.57;;;6.77;;
9496;SDS011;4786;51.270;4.456;2023-02-28T00:44:59;10.03;;;7.20;;
9496;SDS011;4786;51.270;4.456;2023-02-28T00:47:25;8.93;;;7.20;;
9496;SDS011;4786;51.270;4.456;2023-02-28T00:49:51;8.90;;;6.70;;
9496;SDS011;4786;51.270;4.456;2023-02-28T00:52:17;10.77;;;7.40;;
9496;SDS011;4786;51.270;4.456;2023-02-28T00:54:43;10.40;;;6.60;;
9496;SDS011;4786;51.270;4.456;2023-02-28T00:57:09;8.33;;;6.87;;
9496;SDS011;4786;51.270;4.456;2023-02-28T00:59:34;9.07;;;7.40;;
9496;SDS011;4786;51.270;4.456;2023-02-28T01:02:01;8.90;;;7.60;;
9496;SDS011;4786;51.270;4.456;2023-02-28T01:04:27;8.40;;;7.00;;
9496;SDS011;4786;51.270;4.456;2023-02-28T01:06:53;8.60;;;7.33;;
9496;SDS011;4786;51.270;4.456;2023-02-28T01:09:19;7.50;;;6.50;;
9496;SDS011;4786;51.270;4.456;2023-02-28T01:11:45;8.77;;;6.87;;
9496;SDS011;4786;51.270;4.456;2023-02-28T01:14:15;9.00;;;6.77;;
9496;SDS011;4786;51.270;4.456;2023-02-28T01:16:42;7.63;;;6.83;;
9496;SDS011;4786;51.270;4.456;2023-02-28T01:19:08;8.80;;;6.90;;
9496;SDS011;4786;51.270;4.456;2023-02-28T01:21:34;8.23;;;6.80;;
9496;SDS011;4786;51.270;4.456;2023-02-28T01:24:00;9.27;;;7.17;;
9496;SDS011;4786;51.270;4.456;2023-02-28T01:26:27;8.30;;;6.47;;
9496;SDS011;4786;51.270;4.456;2023-02-28T01:28:53;9.70;;;7.00;;
9496;SDS011;4786;51.270;4.456;2023-02-28T01:31:20;6.93;;;6.23;;
9496;SDS011;4786;51.270;4.456;2023-02-28T01:33:47;9.17;;;6.30;;
9496;SDS011;4786;51.270;4.456;2023-02-28T01:36:17;7.97;;;6.77;;
9496;SDS011;4786;51.270;4.456;2023-02-28T01:38:45;8.90;;;7.43;;
9496;SDS011;4786;51.270;4.456;2023-02-28T01:41:19;8.70;;;7.10;;
9496;SDS011;4786;51.270;4.456;2023-02-28T01:46:11;7.60;;;6.77;;
9496;SDS011;4786;51.270;4.456;2023-02-28T01:48:40;8.80;;;6.83;;
9496;SDS011;4786;51.270;4.456;2023-02-28T01:51:20;8.00;;;6.87;;
9496;SDS011;4786;51.270;4.456;2023-02-28T01:53:52;9.33;;;7.00;;
9496;SDS011;4786;51.270;4.456;2023-02-28T01:56:24;8.93;;;7.07;;
9496;SDS011;4786;51.270;4.456;2023-02-28T01:58:54;7.73;;;6.93;;
9496;SDS011;4786;51.270;4.456;2023-02-28T02:01:21;7.83;;;6.97;;
9496;SDS011;4786;51.270;4.456;2023-02-28T02:03:49;8.73;;;7.63;;
9496;SDS011;4786;51.270;4.456;2023-02-28T02:06:30;8.47;;;7.30;;
9496;SDS011;4786;51.270;4.456;2023-02-28T02:09:02;9.47;;;7.23;;
9496;SDS011;4786;51.270;4.456;2023-02-28T02:11:29;7.60;;;6.80;;
9496;SDS011;4786;51.270;4.456;2023-02-28T02:16:48;10.97;;;7.07;;
9496;SDS011;4786;51.270;4.456;2023-02-28T02:25:18;9.73;;;7.33;;
9496;SDS011;4786;51.270;4.456;2023-02-28T02:33:20;9.90;;;7.17;;
9496;SDS011;4786;51.270;4.456;2023-02-28T02:36:13;7.93;;;7.10;;
9496;SDS011;4786;51.270;4.456;2023-02-28T02:44:00;9.63;;;7.10;;
9496;SDS011;4786;51.270;4.456;2023-02-28T02:46:33;10.93;;;6.87;;
9496;SDS011;4786;51.270;4.456;2023-02-28T02:49:04;8.87;;;7.80;;
9496;SDS011;4786;51.270;4.456;2023-02-28T02:51:34;8.77;;;6.90;;
9496;SDS011;4786;51.270;4.456;2023-02-28T02:54:05;7.90;;;6.70;;
9496;SDS011;4786;51.270;4.456;2023-02-28T02:56:35;7.73;;;7.00;;
9496;SDS011;4786;51.270;4.456;2023-02-28T02:59:04;8.33;;;7.00;;
9496;SDS011;4786;51.270;4.456;2023-02-28T03:01:35;9.83;;;7.40;;
9496;SDS011;4786;51.270;4.456;2023-02-28T03:04:04;9.57;;;6.90;;
9496;SDS011;4786;51.270;4.456;2023-02-28T03:06:34;7.80;;;6.63;;
9496;SDS011;4786;51.270;4.456;2023-02-28T03:09:00;10.30;;;7.10;;
9496;SDS011;4786;51.270;4.456;2023-02-28T03:11:27;8.90;;;7.67;;
9496;SDS011;4786;51.270;4.456;2023-02-28T03:28:13;8.60;;;7.10;;
9496;SDS011;4786;51.270;4.456;2023-02-28T03:33:15;9.40;;;7.40;;
9496;SDS011;4786;51.270;4.456;2023-02-28T03:35:47;8.17;;;6.90;;
9496;SDS011;4786;51.270;4.456;2023-02-28T03:38:39;12.90;;;7.87;;
9496;SDS011;4786;51.270;4.456;2023-02-28T03:41:21;8.97;;;7.07;;
9496;SDS011;4786;51.270;4.456;2023-02-28T03:43:55;8.70;;;7.10;;
9496;SDS011;4786;51.270;4.456;2023-02-28T03:46:25;7.40;;;6.70;;
9496;SDS011;4786;51.270;4.456;2023-02-28T03:49:00;8.70;;;6.97;;
9496;SDS011;4786;51.270;4.456;2023-02-28T03:51:31;8.13;;;6.67;;
9496;SDS011;4786;51.270;4.456;2023-02-28T03:53:59;8.07;;;6.60;;
9496;SDS011;4786;51.270;4.456;2023-02-28T03:56:37;8.20;;;6.87;;
9496;SDS011;4786;51.270;4.456;2023-02-28T03:59:22;7.10;;;6.33;;
9496;SDS011;4786;51.270;4.456;2023-02-28T04:01:52;10.53;;;6.80;;
9496;SDS011;4786;51.270;4.456;2023-02-28T04:04:20;9.07;;;6.03;;
9496;SDS011;4786;51.270;4.456;2023-02-28T04:06:47;11.00;;;6.53;;
9496;SDS011;4786;51.270;4.456;2023-02-28T04:09:16;9.97;;;6.37;;
9496;SDS011;4786;51.270;4.456;2023-02-28T04:11:46;8.20;;;6.30;;
9496;SDS011;4786;51.270;4.456;2023-02-28T04:14:16;8.33;;;6.47;;
9496;SDS011;4786;51.270;4.456;2023-02-28T04:16:42;8.20;;;6.67;;
9496;SDS011;4786;51.270;4.456;2023-02-28T04:19:09;7.70;;;6.17;;
9496;SDS011;4786;51.270;4.456;2023-02-28T04:21:37;9.07;;;6.47;;
9496;SDS011;4786;51.270;4.456;2023-02-28T04:24:06;7.63;;;6.13;;
9496;SDS011;4786;51.270;4.456;2023-02-28T04:26:33;7.37;;;6.33;;
9496;SDS011;4786;51.270;4.456;2023-02-28T04:29:01;7.23;;;6.30;;
9496;SDS011;4786;51.270;4.456;2023-02-28T04:31:28;10.23;;;7.10;;
9496;SDS011;4786;51.270;4.456;2023-02-28T04:33:54;9.07;;;6.40;;
9496;SDS011;4786;51.270;4.456;2023-02-28T04:36:20;7.37;;;5.97;;
9496;SDS011;4786;51.270;4.456;2023-02-28T04:38:47;8.40;;;6.53;;
9496;SDS011;4786;51.270;4.456;2023-02-28T04:41:13;10.03;;;6.40;;
9496;SDS011;4786;51.270;4.456;2023-02-28T04:43:39;8.00;;;6.23;;
9496;SDS011;4786;51.270;4.456;2023-02-28T04:46:06;7.33;;;5.90;;
9496;SDS011;4786;51.270;4.456;2023-02-28T04:48:33;11.30;;;6.63;;
9496;SDS011;4786;51.270;4.456;2023-02-28T04:51:04;9.40;;;6.53;;
9496;SDS011;4786;51.270;4.456;2023-02-28T04:53:32;7.23;;;6.20;;
9496;SDS011;4786;51.270;4.456;2023-02-28T04:55:58;9.63;;;5.93;;
9496;SDS011;4786;51.270;4.456;2023-02-28T04:58:24;7.67;;;6.40;;
9496;SDS011;4786;51.270;4.456;2023-02-28T05:00:53;7.63;;;5.93;;
9496;SDS011;4786;51.270;4.456;2023-02-28T05:03:26;12.53;;;7.50;;
9496;SDS011;4786;51.270;4.456;2023-02-28T05:05:52;8.27;;;6.20;;
9496;SDS011;4786;51.270;4.456;2023-02-28T05:08:18;8.60;;;6.60;;
9496;SDS011;4786;51.270;4.456;2023-02-28T05:10:44;7.17;;;5.90;;
9496;SDS011;4786;51.270;4.456;2023-02-28T05:13:12;6.73;;;5.90;;
9496;SDS011;4786;51.270;4.456;2023-02-28T05:15:39;7.33;;;6.57;;
9496;SDS011;4786;51.270;4.456;2023-02-28T05:18:04;9.93;;;6.53;;
9496;SDS011;4786;51.270;4.456;2023-02-28T05:20:31;7.60;;;6.20;;
9496;SDS011;4786;51.270;4.456;2023-02-28T05:22:58;6.80;;;6.10;;
9496;SDS011;4786;51.270;4.456;2023-02-28T05:25:25;7.00;;;6.20;;
9496;SDS011;4786;51.270;4.456;2023-02-28T05:27:51;8.87;;;6.10;;
9496;SDS011;4786;51.270;4.456;2023-02-28T05:30:17;18.13;;;7.03;;
9496;SDS011;4786;51.270;4.456;2023-02-28T05:32:43;6.93;;;6.23;;
9496;SDS011;4786;51.270;4.456;2023-02-28T05:35:15;8.27;;;5.90;;
9496;SDS011;4786;51.270;4.456;2023-02-28T05:37:41;7.53;;;6.20;;
9496;SDS011;4786;51.270;4.456;2023-02-28T05:40:07;9.50;;;6.67;;
9496;SDS011;4786;51.270;4.456;2023-02-28T05:42:37;9.40;;;6.43;;
9496;SDS011;4786;51.270;4.456;2023-02-28T05:45:04;8.90;;;6.13;;
9496;SDS011;4786;51.270;4.456;2023-02-28T05:47:31;8.97;;;6.10;;
9496;SDS011;4786;51.270;4.456;2023-02-28T05:49:57;8.53;;;6.30;;
9496;SDS011;4786;51.270;4.456;2023-02-28T05:52:23;12.33;;;7.03;;
9496;SDS011;4786;51.270;4.456;2023-02-28T05:54:49;10.87;;;7.10;;
9496;SDS011;4786;51.270;4.456;2023-02-28T05:57:15;9.97;;;6.80;;
9496;SDS011;4786;51.270;4.456;2023-02-28T05:59:41;9.73;;;6.90;;
9496;SDS011;4786;51.270;4.456;2023-02-28T06:02:14;11.27;;;6.97;;
9496;SDS011;4786;51.270;4.456;2023-02-28T06:04:41;9.77;;;6.80;;
9496;SDS011;4786;51.270;4.456;2023-02-28T06:07:08;9.67;;;6.50;;
9496;SDS011;4786;51.270;4.456;2023-02-28T06:09:35;10.17;;;7.37;;
9496;SDS011;4786;51.270;4.456;2023-02-28T06:12:02;11.17;;;7.47;;
9496;SDS011;4786;51.270;4.456;2023-02-28T06:14:30;11.23;;;8.20;;
9496;SDS011;4786;51.270;4.456;2023-02-28T06:16:58;8.70;;;7.10;;
9496;SDS011;4786;51.270;4.456;2023-02-28T06:19:25;11.20;;;7.30;;
9496;SDS011;4786;51.270;4.456;2023-02-28T06:21:52;9.37;;;7.07;;
9496;SDS011;4786;51.270;4.456;2023-02-28T06:24:21;11.50;;;7.43;;
9496;SDS011;4786;51.270;4.456;2023-02-28T06:26:48;9.07;;;6.73;;
9496;SDS011;4786;51.270;4.456;2023-02-28T06:29:13;10.17;;;7.60;;
9496;SDS011;4786;51.270;4.456;2023-02-28T06:31:43;10.80;;;7.23;;
9496;SDS011;4786;51.270;4.456;2023-02-28T06:34:10;12.30;;;7.40;;
9496;SDS011;4786;51.270;4.456;2023-02-28T06:36:38;10.30;;;6.70;;
9496;SDS011;4786;51.270;4.456;2023-02-28T06:39:05;10.20;;;6.60;;
9496;SDS011;4786;51.270;4.456;2023-02-28T06:41:31;10.97;;;7.80;;
9496;SDS011;4786;51.270;4.456;2023-02-28T06:44:02;11.43;;;7.00;;
9496;SDS011;4786;51.270;4.456;2023-02-28T06:46:42;9.47;;;6.70;;
9496;SDS011;4786;51.270;4.456;2023-02-28T06:49:09;11.17;;;7.00;;
9496;SDS011;4786;51.270;4.456;2023-02-28T06:51:36;12.17;;;7.83;;
9496;SDS011;4786;51.270;4.456;2023-02-28T06:54:04;9.63;;;7.40;;
9496;SDS011;4786;51.270;4.456;2023-02-28T06:56:30;9.33;;;7.33;;
9496;SDS011;4786;51.270;4.456;2023-02-28T06:58:56;8.97;;;7.20;;
9496;SDS011;4786;51.270;4.456;2023-02-28T07:01:22;9.93;;;7.63;;
9496;SDS011;4786;51.270;4.456;2023-02-28T07:03:49;10.13;;;7.20;;
9496;SDS011;4786;51.270;4.456;2023-02-28T07:06:19;7.80;;;6.30;;
9496;SDS011;4786;51.270;4.456;2023-02-28T07:08:47;12.77;;;7.30;;
9496;SDS011;4786;51.270;4.456;2023-02-28T07:11:14;8.90;;;7.20;;
9496;SDS011;4786;51.270;4.456;2023-02-28T07:13:40;7.97;;;6.40;;
9496;SDS011;4786;51.270;4.456;2023-02-28T07:16:07;9.60;;;6.97;;
9496;SDS011;4786;51.270;4.456;2023-02-28T07:18:34;8.70;;;6.80;;
9496;SDS011;4786;51.270;4.456;2023-02-28T07:21:02;10.60;;;7.20;;
9496;SDS011;4786;51.270;4.456;2023-02-28T07:23:29;10.17;;;7.13;;
9496;SDS011;4786;51.270;4.456;2023-02-28T07:25:55;8.07;;;6.50;;
9496;SDS011;4786;51.270;4.456;2023-02-28T07:28:20;9.37;;;7.23;;
9496;SDS011;4786;51.270;4.456;2023-02-28T07:30:47;9.13;;;6.50;;
9496;SDS011;4786;51.270;4.456;2023-02-28T07:33:13;11.17;;;7.13;;
9496;SDS011;4786;51.270;4.456;2023-02-28T07:35:39;8.10;;;7.07;;
9496;SDS011;4786;51.270;4.456;2023-02-28T07:38:05;11.37;;;7.10;;
9496;SDS011;4786;51.270;4.456;2023-02-28T07:40:32;7.20;;;6.30;;
9496;SDS011;4786;51.270;4.456;2023-02-28T07:42:59;8.37;;;6.47;;
9496;SDS011;4786;51.270;4.456;2023-02-28T07:45:25;10.40;;;6.63;;
9496;SDS011;4786;51.270;4.456;2023-02-28T07:47:54;7.63;;;6.83;;
9496;SDS011;4786;51.270;4.456;2023-02-28T07:50:20;8.23;;;6.73;;
9496;SDS011;4786;51.270;4.456;2023-02-28T07:52:46;9.47;;;7.30;;
9496;SDS011;4786;51.270;4.456;2023-02-28T07:55:11;7.00;;;6.27;;
9496;SDS011;4786;51.270;4.456;2023-02-28T07:57:38;7.43;;;6.00;;
9496;SDS011;4786;51.270;4.456;2023-02-28T08:00:05;6.53;;;5.90;;
9496;SDS011;4786;51.270;4.456;2023-02-28T08:02:37;8.47;;;6.23;;
9496;SDS011;4786;51.270;4.456;2023-02-28T08:05:03;10.17;;;5.97;;
9496;SDS011;4786;51.270;4.456;2023-02-28T08:07:30;9.30;;;6.13;;
9496;SDS011;4786;51.270;4.456;2023-02-28T08:09:55;12.13;;;6.20;;
9496;SDS011;4786;51.270;4.456;2023-02-28T08:12:21;6.50;;;5.87;;
9496;SDS011;4786;51.270;4.456;2023-02-28T08:14:47;8.80;;;5.47;;
9496;SDS011;4786;51.270;4.456;2023-02-28T08:17:13;8.93;;;5.30;;
9496;SDS011;4786;51.270;4.456;2023-02-28T08:19:38;7.20;;;5.67;;
9496;SDS011;4786;51.270;4.456;2023-02-28T08:22:04;6.90;;;5.10;;
9496;SDS011;4786;51.270;4.456;2023-02-28T08:24:30;7.67;;;5.13;;
9496;SDS011;4786;51.270;4.456;2023-02-28T08:26:58;5.33;;;4.83;;
9496;SDS011;4786;51.270;4.456;2023-02-28T08:29:24;6.50;;;5.10;;
9496;SDS011;4786;51.270;4.456;2023-02-28T08:31:50;7.87;;;4.97;;
9496;SDS011;4786;51.270;4.456;2023-02-28T08:34:16;6.10;;;4.47;;
9496;SDS011;4786;51.270;4.456;2023-02-28T08:36:42;8.13;;;4.50;;
9496;SDS011;4786;51.270;4.456;2023-02-28T08:39:10;5.87;;;4.30;;
9496;SDS011;4786;51.270;4.456;2023-02-28T08:41:35;6.73;;;4.20;;
9496;SDS011;4786;51.270;4.456;2023-02-28T08:44:01;6.40;;;3.83;;
9496;SDS011;4786;51.270;4.456;2023-02-28T08:46:28;5.27;;;3.87;;
9496;SDS011;4786;51.270;4.456;2023-02-28T08:48:54;5.73;;;3.60;;
9496;SDS011;4786;51.270;4.456;2023-02-28T08:51:21;6.03;;;3.43;;
9496;SDS011;4786;51.270;4.456;2023-02-28T08:53:52;3.93;;;3.53;;
9496;SDS011;4786;51.270;4.456;2023-02-28T08:56:19;4.30;;;3.20;;
9496;SDS011;4786;51.270;4.456;2023-02-28T08:58:46;4.13;;;3.33;;
9496;SDS011;4786;51.270;4.456;2023-02-28T09:01:14;3.70;;;3.27;;
9496;SDS011;4786;51.270;4.456;2023-02-28T09:03:45;6.53;;;2.90;;
9496;SDS011;4786;51.270;4.456;2023-02-28T09:06:12;3.77;;;2.83;;
9496;SDS011;4786;51.270;4.456;2023-02-28T09:08:39;3.23;;;2.93;;
9496;SDS011;4786;51.270;4.456;2023-02-28T09:11:06;3.60;;;2.87;;
9496;SDS011;4786;51.270;4.456;2023-02-28T09:13:32;4.80;;;2.80;;
9496;SDS011;4786;51.270;4.456;2023-02-28T09:15:59;4.20;;;2.80;;
9496;SDS011;4786;51.270;4.456;2023-02-28T09:18:25;3.40;;;2.93;;
9496;SDS011;4786;51.270;4.456;2023-02-28T09:20:51;2.53;;;2.33;;
9496;SDS011;4786;51.270;4.456;2023-02-28T09:23:17;8.07;;;3.40;;
9496;SDS011;4786;51.270;4.456;2023-02-28T09:25:48;3.33;;;2.80;;
9496;SDS011;4786;51.270;4.456;2023-02-28T09:28:18;4.30;;;2.97;;
9496;SDS011;4786;51.270;4.456;2023-02-28T09:30:47;3.87;;;2.93;;
9496;SDS011;4786;51.270;4.456;2023-02-28T09:33:14;5.80;;;2.90;;
9496;SDS011;4786;51.270;4.456;2023-02-28T09:35:41;3.37;;;2.70;;
9496;SDS011;4786;51.270;4.456;2023-02-28T09:38:07;3.43;;;2.80;;
9496;SDS011;4786;51.270;4.456;2023-02-28T09:40:53;2.60;;;2.30;;
9496;SDS011;4786;51.270;4.456;2023-02-28T09:43:27;3.00;;;2.60;;
9496;SDS011;4786;51.270;4.456;2023-02-28T09:45:59;4.67;;;2.77;;
9496;SDS011;4786;51.270;4.456;2023-02-28T09:48:46;4.30;;;2.50;;
9496;SDS011;4786;51.270;4.456;2023-02-28T09:51:18;3.80;;;2.60;;
9496;SDS011;4786;51.270;4.456;2023-02-28T09:54:21;4.70;;;2.90;;
9496;SDS011;4786;51.270;4.456;2023-02-28T09:59:21;4.30;;;3.07;;
9496;SDS011;4786;51.270;4.456;2023-02-28T10:04:39;3.67;;;2.47;;
9496;SDS011;4786;51.270;4.456;2023-02-28T10:10:20;3.77;;;2.40;;
9496;SDS011;4786;51.270;4.456;2023-02-28T10:12:51;3.00;;;2.70;;
9496;SDS011;4786;51.270;4.456;2023-02-28T10:15:19;3.33;;;2.30;;
9496;SDS011;4786;51.270;4.456;2023-02-28T10:17:49;3.00;;;2.60;;
9496;SDS011;4786;51.270;4.456;2023-02-28T10:20:22;3.40;;;2.70;;
9496;SDS011;4786;51.270;4.456;2023-02-28T10:25:33;3.53;;;2.30;;
9496;SDS011;4786;51.270;4.456;2023-02-28T10:28:11;3.10;;;2.60;;
9496;SDS011;4786;51.270;4.456;2023-02-28T10:30:42;2.67;;;2.47;;
9496;SDS011;4786;51.270;4.456;2023-02-28T10:33:15;2.73;;;2.50;;
9496;SDS011;4786;51.270;4.456;2023-02-28T10:35:51;2.63;;;2.10;;
9496;SDS011;4786;51.270;4.456;2023-02-28T10:38:22;2.37;;;2.17;;
9496;SDS011;4786;51.270;4.456;2023-02-28T10:40:50;2.20;;;2.00;;
9496;SDS011;4786;51.270;4.456;2023-02-28T10:43:28;2.10;;;1.90;;
9496;SDS011;4786;51.270;4.456;2023-02-28T10:51:03;2.33;;;2.13;;
9496;SDS011;4786;51.270;4.456;2023-02-28T10:54:10;2.67;;;1.80;;
9496;SDS011;4786;51.270;4.456;2023-02-28T10:56:25;2.87;;;1.90;;
9496;SDS011;4786;51.270;4.456;2023-02-28T11:03:58;2.23;;;1.93;;
9496;SDS011;4786;51.270;4.456;2023-02-28T11:06:32;2.50;;;2.00;;
9496;SDS011;4786;51.270;4.456;2023-02-28T11:12:04;2.63;;;2.00;;
9496;SDS011;4786;51.270;4.456;2023-02-28T11:14:40;2.43;;;2.23;;
9496;SDS011;4786;51.270;4.456;2023-02-28T11:17:25;2.53;;;2.33;;
9496;SDS011;4786;51.270;4.456;2023-02-28T11:19:58;2.53;;;2.20;;
9496;SDS011;4786;51.270;4.456;2023-02-28T11:22:32;4.27;;;2.17;;
9496;SDS011;4786;51.270;4.456;2023-02-28T11:25:19;2.53;;;2.00;;
9496;SDS011;4786;51.270;4.456;2023-02-28T11:27:57;2.97;;;2.07;;
9496;SDS011;4786;51.270;4.456;2023-02-28T11:30:49;2.50;;;2.10;;
9496;SDS011;4786;51.270;4.456;2023-02-28T11:36:19;2.27;;;2.07;;
9496;SDS011;4786;51.270;4.456;2023-02-28T11:38:51;2.23;;;2.03;;
9496;SDS011;4786;51.270;4.456;2023-02-28T11:41:22;2.00;;;1.80;;
9496;SDS011;4786;51.270;4.456;2023-02-28T11:44:09;2.20;;;2.00;;
9496;SDS011;4786;51.270;4.456;2023-02-28T11:46:57;2.97;;;2.30;;
9496;SDS011;4786;51.270;4.456;2023-02-28T11:49:32;2.13;;;2.03;;
9496;SDS011;4786;51.270;4.456;2023-02-28T12:29:04;3.93;;;2.20;;
9496;SDS011;4786;51.270;4.456;2023-02-28T12:32:11;2.50;;;2.30;;
9496;SDS011;4786;51.270;4.456;2023-02-28T12:34:46;2.73;;;2.50;;
9496;SDS011;4786;51.270;4.456;2023-02-28T12:37:25;2.63;;;2.30;;
9496;SDS011;4786;51.270;4.456;2023-02-28T12:40:00;2.17;;;2.00;;
9496;SDS011;4786;51.270;4.456;2023-02-28T12:42:36;3.13;;;2.40;;
9496;SDS011;4786;51.270;4.456;2023-02-28T12:48:04;4.00;;;2.60;;
9496;SDS011;4786;51.270;4.456;2023-02-28T12:50:33;2.63;;;2.40;;
9496;SDS011;4786;51.270;4.456;2023-02-28T12:56:09;2.73;;;2.53;;
9496;SDS011;4786;51.270;4.456;2023-02-28T12:58:56;2.93;;;2.60;;
9496;SDS011;4786;51.270;4.456;2023-02-28T13:04:25;2.50;;;2.30;;
9496;SDS011;4786;51.270;4.456;2023-02-28T13:09:56;2.97;;;2.70;;
9496;SDS011;4786;51.270;4.456;2023-02-28T13:12:25;3.23;;;2.60;;
9496;SDS011;4786;51.270;4.456;2023-02-28T13:15:01;4.80;;;2.73;;
9496;SDS011;4786;51.270;4.456;2023-02-28T13:17:47;3.27;;;2.40;;
9496;SDS011;4786;51.270;4.456;2023-02-28T13:20:17;3.53;;;2.50;;
9496;SDS011;4786;51.270;4.456;2023-02-28T13:22:45;3.13;;;2.37;;
9496;SDS011;4786;51.270;4.456;2023-02-28T13:27:54;2.80;;;2.50;;
9496;SDS011;4786;51.270;4.456;2023-02-28T13:36:09;2.70;;;2.50;;
9496;SDS011;4786;51.270;4.456;2023-02-28T13:38:54;2.70;;;2.50;;
9496;SDS011;4786;51.270;4.456;2023-02-28T13:49:27;3.90;;;2.77;;
9496;SDS011;4786;51.270;4.456;2023-02-28T13:52:02;3.93;;;2.60;;
9496;SDS011;4786;51.270;4.456;2023-02-28T14:02:46;4.07;;;2.80;;
9496;SDS011;4786;51.270;4.456;2023-02-28T14:05:32;2.80;;;2.60;;
9496;SDS011;4786;51.270;4.456;2023-02-28T14:08:21;2.93;;;2.63;;
9496;SDS011;4786;51.270;4.456;2023-02-28T14:10:48;5.17;;;2.80;;
9496;SDS011;4786;51.270;4.456;2023-02-28T14:16:00;4.17;;;2.87;;
9496;SDS011;4786;51.270;4.456;2023-02-28T14:18:29;4.07;;;3.33;;
9496;SDS011;4786;51.270;4.456;2023-02-28T14:20:59;4.40;;;3.00;;
9496;SDS011;4786;51.270;4.456;2023-02-28T14:26:18;5.50;;;3.00;;
9496;SDS011;4786;51.270;4.456;2023-02-28T14:32:11;5.53;;;3.07;;
9496;SDS011;4786;51.270;4.456;2023-02-28T14:37:44;3.20;;;2.90;;
9496;SDS011;4786;51.270;4.456;2023-02-28T14:40:21;4.77;;;2.70;;
9496;SDS011;4786;51.270;4.456;2023-02-28T14:43:00;4.70;;;3.10;;
9496;SDS011;4786;51.270;4.456;2023-02-28T14:45:29;3.97;;;2.97;;
9496;SDS011;4786;51.270;4.456;2023-02-28T14:47:57;4.33;;;3.07;;
9496;SDS011;4786;51.270;4.456;2023-02-28T14:50:29;3.83;;;2.90;;
9496;SDS011;4786;51.270;4.456;2023-02-28T14:52:57;3.83;;;2.70;;
9496;SDS011;4786;51.270;4.456;2023-02-28T14:55:26;3.70;;;2.80;;
9496;SDS011;4786;51.270;4.456;2023-02-28T14:57:56;4.07;;;3.00;;
9496;SDS011;4786;51.270;4.456;2023-02-28T15:00:30;3.20;;;2.67;;
9496;SDS011;4786;51.270;4.456;2023-02-28T15:02:58;3.10;;;2.80;;
9496;SDS011;4786;51.270;4.456;2023-02-28T15:05:29;6.03;;;3.10;;
9496;SDS011;4786;51.270;4.456;2023-02-28T15:10:40;3.47;;;3.17;;
9496;SDS011;4786;51.270;4.456;2023-02-28T15:13:15;2.87;;;2.63;;
9496;SDS011;4786;51.270;4.456;2023-02-28T15:18:07;3.20;;;2.90;;
9496;SDS011;4786;51.270;4.456;2023-02-28T15:20:40;3.43;;;3.13;;
9496;SDS011;4786;51.270;4.456;2023-02-28T15:23:09;3.00;;;2.73;;
9496;SDS011;4786;51.270;4.456;2023-02-28T15:25:36;3.87;;;2.83;;
9496;SDS011;4786;51.270;4.456;2023-02-28T15:28:02;3.23;;;2.93;;
9496;SDS011;4786;51.270;4.456;2023-02-28T15:30:29;5.40;;;3.00;;
9496;SDS011;4786;51.270;4.456;2023-02-28T15:33:19;4.77;;;3.10;;
9496;SDS011;4786;51.270;4.456;2023-02-28T15:35:47;3.30;;;3.00;;
9496;SDS011;4786;51.270;4.456;2023-02-28T15:40:51;3.50;;;3.07;;
9496;SDS011;4786;51.270;4.456;2023-02-28T15:43:24;3.50;;;3.20;;
9496;SDS011;4786;51.270;4.456;2023-02-28T15:46:04;3.47;;;3.07;;
9496;SDS011;4786;51.270;4.456;2023-02-28T15:48:54;3.80;;;3.07;;
9496;SDS011;4786;51.270;4.456;2023-02-28T15:51:32;4.17;;;3.27;;
9496;SDS011;4786;51.270;4.456;2023-02-28T15:54:02;3.90;;;3.13;;
9496;SDS011;4786;51.270;4.456;2023-02-28T15:56:35;3.30;;;3.00;;
9496;SDS011;4786;51.270;4.456;2023-02-28T15:59:12;3.60;;;3.13;;
9496;SDS011;4786;51.270;4.456;2023-02-28T16:01:42;3.30;;;2.90;;
9496;SDS011;4786;51.270;4.456;2023-02-28T16:04:15;3.20;;;2.90;;
9496;SDS011;4786;51.270;4.456;2023-02-28T16:07:04;4.13;;;2.73;;
9496;SDS011;4786;51.270;4.456;2023-02-28T16:09:31;3.67;;;3.03;;
9496;SDS011;4786;51.270;4.456;2023-02-28T16:12:00;4.07;;;3.00;;
9496;SDS011;4786;51.270;4.456;2023-02-28T16:14:29;3.30;;;3.00;;
9496;SDS011;4786;51.270;4.456;2023-02-28T16:17:03;4.13;;;3.10;;
9496;SDS011;4786;51.270;4.456;2023-02-28T16:19:31;3.40;;;3.00;;
9496;SDS011;4786;51.270;4.456;2023-02-28T16:21:57;3.60;;;2.83;;
9496;SDS011;4786;51.270;4.456;2023-02-28T16:24:23;4.20;;;2.93;;
9496;SDS011;4786;51.270;4.456;2023-02-28T16:26:49;4.77;;;3.03;;
9496;SDS011;4786;51.270;4.456;2023-02-28T16:31:55;3.63;;;2.80;;
9496;SDS011;4786;51.270;4.456;2023-02-28T16:34:21;5.43;;;3.27;;
9496;SDS011;4786;51.270;4.456;2023-02-28T16:36:48;8.00;;;2.90;;
9496;SDS011;4786;51.270;4.456;2023-02-28T16:39:15;3.30;;;3.00;;
9496;SDS011;4786;51.270;4.456;2023-02-28T16:41:44;3.50;;;3.13;;
9496;SDS011;4786;51.270;4.456;2023-02-28T16:44:13;3.30;;;3.00;;
9496;SDS011;4786;51.270;4.456;2023-02-28T16:46:54;3.57;;;2.80;;
9496;SDS011;4786;51.270;4.456;2023-02-28T16:49:19;4.60;;;3.10;;
9496;SDS011;4786;51.270;4.456;2023-02-28T16:51:45;3.23;;;3.00;;
9496;SDS011;4786;51.270;4.456;2023-02-28T16:54:12;5.07;;;3.43;;
9496;SDS011;4786;51.270;4.456;2023-02-28T16:56:38;6.23;;;3.10;;
9496;SDS011;4786;51.270;4.456;2023-02-28T16:59:08;3.37;;;3.07;;
9496;SDS011;4786;51.270;4.456;2023-02-28T17:01:35;3.50;;;3.03;;
9496;SDS011;4786;51.270;4.456;2023-02-28T17:04:01;3.40;;;3.10;;
9496;SDS011;4786;51.270;4.456;2023-02-28T17:06:28;3.57;;;3.17;;
9496;SDS011;4786;51.270;4.456;2023-02-28T17:08:55;3.60;;;3.30;;
9496;SDS011;4786;51.270;4.456;2023-02-28T17:11:23;3.67;;;3.37;;
9496;SDS011;4786;51.270;4.456;2023-02-28T17:13:49;3.10;;;2.80;;
9496;SDS011;4786;51.270;4.456;2023-02-28T17:16:17;4.70;;;3.53;;
9496;SDS011;4786;51.270;4.456;2023-02-28T17:18:48;4.83;;;3.10;;
9496;SDS011;4786;51.270;4.456;2023-02-28T17:21:15;3.60;;;3.17;;
9496;SDS011;4786;51.270;4.456;2023-02-28T17:23:42;7.03;;;3.70;;
9496;SDS011;4786;51.270;4.456;2023-02-28T17:26:18;4.10;;;3.57;;
9496;SDS011;4786;51.270;4.456;2023-02-28T17:28:46;3.73;;;3.30;;
9496;SDS011;4786;51.270;4.456;2023-02-28T17:31:12;5.47;;;3.67;;
9496;SDS011;4786;51.270;4.456;2023-02-28T17:33:39;5.23;;;3.80;;
9496;SDS011;4786;51.270;4.456;2023-02-28T17:36:04;5.47;;;3.80;;
9496;SDS011;4786;51.270;4.456;2023-02-28T17:38:31;4.37;;;3.70;;
9496;SDS011;4786;51.270;4.456;2023-02-28T17:40:58;4.17;;;3.77;;
9496;SDS011;4786;51.270;4.456;2023-02-28T17:43:25;4.40;;;4.00;;
9496;SDS011;4786;51.270;4.456;2023-02-28T17:45:52;4.03;;;3.73;;
9496;SDS011;4786;51.270;4.456;2023-02-28T17:48:18;4.37;;;3.80;;
9496;SDS011;4786;51.270;4.456;2023-02-28T17:50:44;4.87;;;3.67;;
9496;SDS011;4786;51.270;4.456;2023-02-28T17:53:11;4.47;;;3.70;;
9496;SDS011;4786;51.270;4.456;2023-02-28T17:55:37;4.63;;;3.80;;
9496;SDS011;4786;51.270;4.456;2023-02-28T17:58:03;4.20;;;3.80;;
9496;SDS011;4786;51.270;4.456;2023-02-28T18:00:29;4.20;;;3.80;;
9496;SDS011;4786;51.270;4.456;2023-02-28T18:02:59;3.73;;;3.37;;
9496;SDS011;4786;51.270;4.456;2023-02-28T18:05:25;4.17;;;3.53;;
9496;SDS011;4786;51.270;4.456;2023-02-28T18:07:51;5.20;;;4.00;;
9496;SDS011;4786;51.270;4.456;2023-02-28T18:10:19;4.80;;;4.00;;